Time;durP1;ratioP1;P1;durP2;ratioP2;P2;SDS_P1;SDS_P2;PMS_P1;PMS_P2;Temp;Humidity;BMP_temperature;BMP_pressure;BME280_temperature;BME280_humidity;BME280_pressure;Samples;Min_cycle;Max_cycle;Signal;HPM_P1;HPM_P2
2023/03/17 00:08:06;;;;;;;1999.90;999.90;;;9.00;99.90;;;;;;6738321;88;20180;-77
2023/03/17 00:18:13;;;;;;;1999.90;999.90;;;8.90;99.90;;;;;;6739228;87;20620;-77
2023/03/17 00:28:23;;;;;;;1999.90;999.90;;;8.80;99.90;;;;;;6740754;87;20193;-76
2023/03/17 00:38:24;;;;;;;1999.90;999.90;;;8.80;99.90;;;;;;6736127;88;20204;-76
2023/03/17 00:48:24;;;;;;;1999.90;999.90;;;8.60;99.90;;;;;;6736714;88;20185;-77
2023/03/17 00:58:31;;;;;;;1999.90;999.90;;;8.60;99.90;;;;;;6734782;88;20222;-76
2023/03/17 01:08:32;;;;;;;1999.90;999.90;;;8.60;99.90;;;;;;6728969;88;20181;-76
2023/03/17 01:18:33;;;;;;;1999.90;999.90;;;8.60;99.90;;;;;;6738330;88;20271;-77
2023/03/17 01:28:33;;;;;;;1999.90;999.90;;;8.60;99.90;;;;;;6740764;88;20267;-75
2023/03/17 01:38:34;;;;;;;1999.90;999.90;;;8.60;99.90;;;;;;6737840;88;20602;-75
2023/03/17 01:48:39;;;;;;;1999.90;999.90;;;8.50;99.90;;;;;;6743820;88;20206;-76
2023/03/17 01:58:40;;;;;;;1999.90;999.90;;;8.40;99.90;;;;;;6739608;88;20207;-76
2023/03/17 02:08:41;;;;;;;1999.90;999.90;;;8.30;99.90;;;;;;6737333;87;20226;-77
2023/03/17 02:18:42;;;;;;;1999.90;999.90;;;8.30;99.90;;;;;;6740000;88;20200;-77
2023/03/17 02:28:44;;;;;;;1999.90;999.90;;;8.30;99.90;;;;;;6745856;88;20637;-76
2023/03/17 02:38:45;;;;;;;1999.90;999.90;;;8.10;99.90;;;;;;6741964;88;20184;-75
2023/03/17 02:48:46;;;;;;;1999.90;999.90;;;8.10;99.90;;;;;;6732339;88;20684;-78
2023/03/17 02:58:47;;;;;;;1999.90;999.90;;;8.10;99.90;;;;;;6739280;88;20685;-77
2023/03/17 03:08:48;;;;;;;1999.90;999.90;;;8.10;99.90;;;;;;6741577;88;20275;-77
2023/03/17 03:18:49;;;;;;;1999.90;999.90;;;8.10;99.90;;;;;;6742905;88;20619;-77
2023/03/17 03:28:50;;;;;;;1999.90;999.90;;;8.00;99.90;;;;;;6750999;87;20188;-76
2023/03/17 03:38:50;;;;;;;1999.90;999.90;;;7.90;99.90;;;;;;6744773;88;20185;-78
2023/03/17 03:48:51;;;;;;;1999.90;999.90;;;7.80;99.90;;;;;;6753211;87;20145;-78
2023/03/17 03:58:51;;;;;;;1999.90;999.90;;;7.70;99.90;;;;;;6753707;87;20216;-77
2023/03/17 04:08:52;;;;;;;1999.90;999.90;;;7.70;99.90;;;;;;6753313;88;20184;-76
2023/03/17 04:18:53;;;;;;;1999.90;999.90;;;7.60;99.90;;;;;;6754261;88;20175;-77
2023/03/17 04:28:53;;;;;;;1999.90;999.90;;;7.60;99.90;;;;;;6750479;88;20233;-77
2023/03/17 04:38:54;;;;;;;1999.90;999.90;;;7.50;99.90;;;;;;6746551;87;20209;-77
2023/03/17 04:48:55;;;;;;;1999.90;999.90;;;7.50;99.90;;;;;;6742990;87;20196;-77
2023/03/17 04:58:56;;;;;;;1999.90;999.90;;;7.40;99.90;;;;;;6742797;88;20334;-77
2023/03/17 05:08:56;;;;;;;1999.90;999.90;;;7.50;99.90;;;;;;6739346;88;20203;-77
2023/03/17 05:18:57;;;;;;;1999.90;999.90;;;7.60;99.90;;;;;;6744039;87;20195;-76
2023/03/17 05:28:57;;;;;;;1999.90;999.90;;;7.70;99.90;;;;;;6741134;87;20185;-77
2023/03/17 05:38:58;;;;;;;1999.90;999.90;;;7.70;99.90;;;;;;6744143;87;20263;-77
2023/03/17 05:48:59;;;;;;;1999.90;999.90;;;7.80;99.90;;;;;;6737625;88;20710;-76
2023/03/17 05:59:00;;;;;;;1999.90;999.90;;;7.80;99.90;;;;;;6736836;88;20709;-76
2023/03/17 06:09:01;;;;;;;1999.90;999.90;;;7.90;99.90;;;;;;6738169;88;20213;-76
2023/03/17 06:19:02;;;;;;;1999.90;999.90;;;7.90;99.90;;;;;;6741161;87;20201;-77
2023/03/17 06:29:09;;;;;;;1999.90;999.90;;;8.10;99.90;;;;;;6745256;88;20210;-77
2023/03/17 06:39:10;;;;;;;1999.90;999.90;;;8.20;99.90;;;;;;6743705;87;20299;-78
2023/03/17 06:49:12;;;;;;;1999.90;999.90;;;8.40;99.90;;;;;;6740448;88;20177;-77
2023/03/17 06:59:12;;;;;;;1999.90;999.90;;;8.50;99.90;;;;;;6736728;88;20178;-76
2023/03/17 07:09:14;;;;;;;1999.90;999.90;;;8.80;99.90;;;;;;6744544;87;20214;-76
2023/03/17 07:19:15;;;;;;;1999.90;999.90;;;9.00;99.90;;;;;;6744634;88;20184;-77
2023/03/17 07:29:17;;;;;;;1999.90;999.90;;;9.20;99.90;;;;;;6743921;88;20189;-77
2023/03/17 07:39:17;;;;;;;1999.90;999.90;;;9.40;99.90;;;;;;6745374;87;20197;-77
2023/03/17 07:49:18;;;;;;;1999.90;999.90;;;9.60;99.90;;;;;;6742079;88;20196;-77
2023/03/17 07:59:19;;;;;;;1999.90;999.90;;;9.70;99.90;;;;;;6741576;87;20205;-77
2023/03/17 08:09:23;;;;;;;1999.90;999.90;;;10.00;99.90;;;;;;6738729;88;20196;-77
2023/03/17 08:19:23;;;;;;;1999.90;999.90;;;10.10;99.90;;;;;;6740067;88;20190;-75
2023/03/17 08:29:24;;;;;;;1999.90;999.90;;;10.50;99.90;;;;;;6740995;88;20180;-77
2023/03/17 08:39:25;;;;;;;1999.90;999.90;;;11.00;99.90;;;;;;6736552;88;20270;-77
2023/03/17 08:49:26;;;;;;;1999.90;999.90;;;11.60;99.90;;;;;;6743706;88;20214;-77
2023/03/17 08:59:26;;;;;;;1999.90;999.90;;;12.20;99.90;;;;;;6743459;88;20188;-78
2023/03/17 09:09:27;;;;;;;1999.90;999.90;;;12.60;99.90;;;;;;6743127;87;20203;-78
2023/03/17 09:19:27;;;;;;;1999.90;999.90;;;13.40;99.90;;;;;;6745849;87;20204;-79
2023/03/17 09:29:28;;;;;;;1999.90;999.90;;;13.50;99.90;;;;;;6742153;88;20196;-80
2023/03/17 09:39:28;;;;;;;1999.90;999.90;;;13.70;99.90;;;;;;6741636;88;20211;-80
2023/03/17 09:49:50;;;;;;;1999.90;999.90;;;13.60;99.90;;;;;;6746003;88;20274;-79
2023/03/17 10:00:00;;;;;;;1999.90;999.90;;;13.80;99.90;;;;;;6754668;88;20186;-81
2023/03/17 10:10:04;;;;;;;1999.90;999.90;;;13.70;99.90;;;;;;6751588;88;20208;-80
2023/03/17 10:20:16;;;;;;;1999.90;999.90;;;13.70;99.90;;;;;;6731297;88;20324;-78
2023/03/17 10:30:21;;;;;;;1999.90;999.90;;;14.20;99.90;;;;;;6729874;88;20195;-79
2023/03/17 10:40:25;;;;;;;1999.90;999.90;;;14.80;99.90;;;;;;6729847;88;20805;-80
2023/03/17 10:50:32;;;;;;;1999.90;999.90;;;14.60;99.90;;;;;;6736261;88;20208;-78
2023/03/17 11:00:35;;;;;;;1999.90;999.90;;;14.70;99.90;;;;;;6736996;88;20194;-80
2023/03/17 11:10:38;;;;;;;1999.90;999.90;;;15.00;99.90;;;;;;6736642;88;20196;-79
2023/03/17 11:20:49;;;;;;;1999.90;999.90;;;14.80;99.90;;;;;;6733117;88;20679;-80
2023/03/17 11:31:21;;;;;;;1999.90;999.90;;;15.50;99.90;;;;;;6731380;87;20607;-77
2023/03/17 11:41:41;;;;;;;1999.90;999.90;;;15.50;99.80;;;;;;6727574;88;20178;-80
2023/03/17 11:51:55;;;;;;;1999.90;999.90;;;15.10;99.90;;;;;;6736388;88;20303;-79
2023/03/17 12:02:18;;;;;;;1999.90;999.90;;;15.20;99.90;;;;;;6730170;88;20200;-80
2023/03/17 12:12:26;;;;;;;1999.90;999.90;;;15.00;99.90;;;;;;6732884;88;20369;-83
2023/03/17 12:22:32;;;;;;;1999.90;999.90;;;15.20;99.90;;;;;;6732693;88;20237;-80
2023/03/17 12:33:21;;;;;;;1999.90;999.90;;;15.20;99.90;;;;;;6732701;88;20675;-80
2023/03/17 12:43:22;;;;;;;1999.90;999.90;;;15.30;99.90;;;;;;6749654;88;20314;-81
2023/03/17 12:53:28;;;;;;;1999.90;999.90;;;15.40;99.90;;;;;;6746017;88;20208;-80
2023/03/17 13:03:32;;;;;;;1999.90;999.90;;;16.00;99.90;;;;;;6744437;88;20213;-81
2023/03/17 13:13:44;;;;;;;1999.90;999.90;;;16.00;99.60;;;;;;6745001;88;20194;-81
2023/03/17 13:23:54;;;;;;;1999.90;999.90;;;16.20;99.90;;;;;;6731197;88;20691;-79
2023/03/17 13:33:56;;;;;;;1999.90;999.90;;;16.10;99.80;;;;;;6746256;88;20531;-79
2023/03/17 13:44:14;;;;;;;1999.90;999.90;;;16.20;99.90;;;;;;6744319;88;20720;-79
2023/03/17 13:54:33;;;;;;;1999.90;999.90;;;16.30;99.70;;;;;;6742691;88;20206;-79
2023/03/17 14:04:51;;;;;;;1999.90;999.90;;;16.80;99.60;;;;;;6735334;88;20193;-80
2023/03/17 14:15:03;;;;;;;1999.90;999.90;;;16.40;99.70;;;;;;6744169;88;20295;-79
2023/03/17 14:25:07;;;;;;;1999.90;999.90;;;16.00;99.90;;;;;;6722405;88;20194;-79
2023/03/17 14:35:12;;;;;;;1999.90;999.90;;;16.00;99.90;;;;;;6726759;88;20326;-78
2023/03/17 14:45:26;;;;;;;;;;;15.80;99.90;;;;;;6742676;88;20711;-78
2023/03/17 14:55:41;;;;;;;1999.90;999.90;;;15.70;99.90;;;;;;6742020;88;20065;-78
2023/03/17 15:05:44;;;;;;;1999.90;999.90;;;15.60;99.90;;;;;;6742334;88;20209;-79
2023/03/17 15:15:44;;;;;;;1999.90;999.90;;;15.30;99.90;;;;;;6739824;88;20204;-78
2023/03/17 15:25:54;;;;;;;1999.90;999.90;;;15.20;99.90;;;;;;6742577;88;20334;-78
2023/03/17 15:35:55;;;;;;;1999.90;999.90;;;15.30;99.90;;;;;;6742160;88;20166;-80
2023/03/17 15:46:02;;;;;;;1999.90;999.90;;;15.20;99.90;;;;;;6739356;88;20534;-77
2023/03/17 15:56:03;;;;;;;1999.90;999.90;;;15.00;99.90;;;;;;6741820;88;20203;-79
2023/03/17 16:06:12;;;;;;;1999.90;999.90;;;14.90;99.90;;;;;;6742319;88;20267;-79
2023/03/17 16:16:22;;;;;;;1999.90;999.90;;;14.80;99.90;;;;;;6742549;88;20569;-80
2023/03/17 16:26:23;;;;;;;1999.90;999.90;;;14.60;99.90;;;;;;6733111;88;20172;-80
2023/03/17 16:36:24;;;;;;;1999.90;999.90;;;14.60;99.90;;;;;;6751211;88;20226;-80
2023/03/17 16:46:25;;;;;;;1999.90;999.90;;;14.60;99.90;;;;;;6744119;88;20241;-79
2023/03/17 16:56:26;;;;;;;1999.90;999.90;;;14.50;99.90;;;;;;6738461;88;20176;-79
2023/03/17 17:06:27;;;;;;;1999.90;999.90;;;14.40;99.90;;;;;;6743307;88;20201;-78
2023/03/17 17:16:34;;;;;;;1999.90;999.90;;;14.40;99.90;;;;;;6738658;88;20223;-78
2023/03/17 17:26:34;;;;;;;1999.90;999.90;;;14.30;99.90;;;;;;6740549;88;20576;-77
2023/03/17 17:36:35;;;;;;;1999.90;999.90;;;14.30;99.90;;;;;;6743158;88;20185;-78
2023/03/17 17:46:36;;;;;;;1999.90;999.90;;;14.30;99.90;;;;;;6741223;88;20219;-79
2023/03/17 17:56:39;;;;;;;1999.90;999.90;;;14.30;99.90;;;;;;6743643;88;20533;-78
2023/03/17 18:06:39;;;;;;;1999.90;999.90;;;14.20;99.90;;;;;;6744419;88;20192;-78
2023/03/17 18:16:41;;;;;;;1999.90;999.90;;;14.10;99.90;;;;;;6743836;88;20244;-79
2023/03/17 18:26:41;;;;;;;1999.90;999.90;;;14.00;99.90;;;;;;6743422;87;20281;-77
2023/03/17 18:36:43;;;;;;;1999.90;999.90;;;13.80;99.90;;;;;;6739666;88;20354;-77
2023/03/17 18:46:44;;;;;;;1999.90;999.90;;;13.70;99.90;;;;;;6740448;88;20176;-78
2023/03/17 18:56:44;;;;;;;1999.90;999.90;;;13.50;99.90;;;;;;6734153;88;20295;-78
2023/03/17 19:06:45;;;;;;;1999.90;999.90;;;12.60;99.90;;;;;;6734967;88;20386;-78
2023/03/17 19:16:45;;;;;;;1999.90;999.90;;;12.40;99.90;;;;;;6736632;88;20510;-78
2023/03/17 19:26:46;;;;;;;1999.90;999.90;;;12.00;99.90;;;;;;6734880;87;20354;-78
2023/03/17 19:36:47;;;;;;;1999.90;999.90;;;11.80;99.90;;;;;;6734205;88;20222;-77
2023/03/17 19:46:47;;;;;;;1999.90;999.90;;;11.90;99.90;;;;;;6737117;88;20181;-75
2023/03/17 19:56:48;;;;;;;1999.90;999.90;;;11.80;99.90;;;;;;6733569;88;21137;-76
2023/03/17 20:06:54;;;;;;;1999.90;999.90;;;11.90;99.90;;;;;;6736205;88;20296;-76
2023/03/17 20:16:54;;;;;;;1999.90;999.90;;;11.70;99.90;;;;;;6739200;88;20181;-77
2023/03/17 20:26:56;;;;;;;1999.90;999.90;;;11.70;99.90;;;;;;6730876;88;20197;-78
2023/03/17 20:36:57;;;;;;;1999.90;999.90;;;11.50;99.90;;;;;;6734127;88;20587;-76
2023/03/17 20:46:57;;;;;;;1999.90;999.90;;;11.50;99.90;;;;;;6732189;87;20212;-78
2023/03/17 20:56:59;;;;;;;1999.90;999.90;;;11.50;99.90;;;;;;6733516;87;20173;-76
2023/03/17 21:07:00;;;;;;;1999.90;999.90;;;11.50;99.90;;;;;;6732990;88;20185;-75
2023/03/17 21:17:01;;;;;;;1999.90;999.90;;;11.00;99.90;;;;;;6736026;88;20212;-76
2023/03/17 21:27:04;;;;;;;1999.90;999.90;;;10.70;99.90;;;;;;6732288;87;20229;-75
2023/03/17 21:37:05;;;;;;;1999.90;999.90;;;10.50;99.90;;;;;;6738312;88;20200;-77
2023/03/17 21:47:06;;;;;;;1999.90;999.90;;;10.30;99.90;;;;;;6736237;88;20228;-75
2023/03/17 21:57:07;;;;;;;1999.90;999.90;;;10.20;99.90;;;;;;6735755;88;20206;-75
2023/03/17 22:07:09;;;;;;;1999.90;999.90;;;10.10;99.90;;;;;;6738579;88;20194;-76
2023/03/17 22:17:09;;;;;;;1999.90;999.90;;;10.00;99.90;;;;;;6742635;88;20188;-77
2023/03/17 22:27:10;;;;;;;1999.90;999.90;;;10.00;99.90;;;;;;6737493;88;20298;-74
2023/03/17 22:37:10;;;;;;;1999.90;999.90;;;9.90;99.90;;;;;;6736318;88;20215;-75
2023/03/17 22:47:11;;;;;;;1999.90;999.90;;;9.80;99.90;;;;;;6743527;88;20209;-76
2023/03/17 22:57:11;;;;;;;1999.90;999.90;;;9.90;99.90;;;;;;6735765;88;20224;-75
2023/03/17 23:07:12;;;;;;;1999.90;999.90;;;10.00;99.90;;;;;;6747044;88;20318;-75
2023/03/17 23:17:12;;;;;;;1999.90;999.90;;;10.10;99.90;;;;;;6744748;88;20659;-75
2023/03/17 23:27:13;;;;;;;1999.90;999.90;;;10.20;99.90;;;;;;6737623;88;20712;-76
2023/03/17 23:37:14;;;;;;;1999.90;999.90;;;10.10;99.90;;;;;;6735804;88;20177;-75
2023/03/17 23:47:15;;;;;;;1999.90;999.90;;;10.20;99.90;;;;;;6735822;88;20502;-76
2023/03/17 23:57:16;;;;;;;1999.90;999.90;;;10.30;99.90;;;;;;6735629;88;20205;-76
